Time;durP1;ratioP1;P1;durP2;ratioP2;P2;SDS_P1;SDS_P2;PMS_P1;PMS_P2;Temp;Humidity;BMP_temperature;BMP_pressure;BME280_temperature;BME280_humidity;BME280_pressure;Samples;Min_cycle;Max_cycle;Signal;HPM_P1;HPM_P2
2022/09/21 00:00:47;;;;;;;;;12.67;10.33;;;;;15.17;55.92;102066.03;5016401;28;45447;-64
2022/09/21 00:03:14;;;;;;;;;11.00;11.00;;;;;15.19;55.70;102072.09;5016497;28;45483;-65
2022/09/21 00:05:39;;;;;;;;;12.00;11.00;;;;;15.13;55.89;102060.13;5016173;28;45379;-66
2022/09/21 00:08:06;;;;;;;;;12.00;11.33;;;;;15.19;55.65;102070.28;5015935;28;45442;-64
2022/09/21 00:10:32;;;;;;;;;9.00;9.00;;;;;14.60;55.70;101971.34;5016193;28;45458;-65
2022/09/21 00:12:59;;;;;;;;;9.33;9.00;;;;;14.74;55.75;101996.84;5018988;28;45483;-65
2022/09/21 00:15:25;;;;;;;;;10.00;10.00;;;;;15.01;55.30;102049.69;5019765;28;47549;-64
2022/09/21 00:17:54;;;;;;;;;10.00;10.00;;;;;15.16;55.73;102067.03;5019433;28;45486;-64
2022/09/21 00:20:20;;;;;;;;;13.67;13.67;;;;;15.18;55.52;102067.75;5018611;28;45281;-65
2022/09/21 00:22:47;;;;;;;;;9.00;8.33;;;;;15.15;55.32;102063.50;5020160;28;45407;-65
2022/09/21 00:25:13;;;;;;;;;9.67;8.33;;;;;15.09;55.47;102049.84;5017511;28;46755;-65
2022/09/21 00:27:38;;;;;;;;;9.67;9.67;;;;;15.06;55.79;102053.66;5013655;28;45320;-64
2022/09/21 00:30:05;;;;;;;;;7.33;7.33;;;;;14.71;55.51;101995.31;5018934;28;60407;-66
2022/09/21 00:32:32;;;;;;;;;9.33;9.00;;;;;15.07;55.81;102059.88;5015373;28;45533;-65
2022/09/21 00:34:59;;;;;;;;;11.00;10.00;;;;;15.13;55.55;102070.00;5015560;28;46425;-65
2022/09/21 00:37:26;;;;;;;;;10.67;9.00;;;;;15.12;55.28;102074.53;5019008;28;45363;-65
2022/09/21 00:39:52;;;;;;;;;11.00;9.00;;;;;15.08;55.44;102062.41;5019850;28;45518;-66
2022/09/21 00:42:30;;;;;;;;;7.67;7.67;;;;;14.57;55.69;101975.16;5019303;28;45316;-65
2022/09/21 00:44:56;;;;;;;;;8.67;8.67;;;;;14.99;55.77;102059.69;5019293;28;46150;-65
2022/09/21 00:47:26;;;;;;;;;11.67;10.67;;;;;14.95;56.32;102066.34;5018956;28;45458;-64
2022/09/21 00:49:54;;;;;;;;;8.00;8.00;;;;;14.67;56.15;102019.81;5019348;28;45406;-65
2022/09/21 00:52:23;;;;;;;;;8.00;8.00;;;;;14.67;56.38;102034.06;5017604;28;45471;-65
2022/09/21 00:54:51;;;;;;;;;6.67;6.67;;;;;14.85;56.49;102069.88;5028066;28;46470;-65
2022/09/21 00:57:22;;;;;;;;;10.33;9.00;;;;;14.83;56.87;102071.00;5018935;28;45389;-66
2022/09/21 00:59:50;;;;;;;;;8.33;7.33;;;;;14.71;57.00;102072.09;5019404;28;45671;-64
2022/09/21 01:02:17;;;;;;;;;9.67;9.00;;;;;14.73;57.62;102081.69;5019173;28;45436;-68
2022/09/21 01:04:44;;;;;;;;;7.00;7.00;;;;;14.57;57.75;102062.63;5018952;28;45455;-65
2022/09/21 01:07:17;;;;;;;;;4.67;4.00;;;;;14.61;58.04;102066.72;5019024;28;45568;-65
2022/09/21 01:09:45;;;;;;;;;8.00;5.67;;;;;14.51;58.42;102060.50;5010945;28;45551;-65
2022/09/21 01:12:28;;;;;;;;;12.67;10.67;;;;;14.61;58.37;102074.72;5018890;28;45626;-65
2022/09/21 01:15:11;;;;;;;;;8.67;8.67;;;;;14.63;57.91;102077.31;5012099;28;45542;-64
2022/09/21 01:17:51;;;;;;;;;9.00;8.33;;;;;14.54;58.90;102078.97;5018907;28;45480;-65
2022/09/21 01:20:34;;;;;;;;;10.00;9.00;;;;;14.51;58.78;102079.22;5019123;28;45411;-65
2022/09/21 01:23:32;;;;;;;;;8.67;8.33;;;;;14.51;58.62;102081.91;5012364;28;45495;-64
2022/09/21 01:26:05;;;;;;;;;7.67;6.33;;;;;14.48;58.38;102085.72;5011334;28;46842;-65
2022/09/21 01:28:57;;;;;;;;;6.67;6.67;;;;;14.52;58.55;102083.59;5018691;28;45626;-66
2022/09/21 01:31:31;;;;;;;;;9.33;6.67;;;;;14.55;58.35;102083.31;5018806;28;45500;-65
2022/09/21 01:34:04;;;;;;;;;8.33;6.00;;;;;14.36;58.27;102051.97;5018797;28;45572;-64
2022/09/21 01:36:32;;;;;;;;;9.33;9.00;;;;;14.50;58.02;102064.16;5016893;28;47485;-65
2022/09/21 01:39:11;;;;;;;;;13.33;12.67;;;;;14.49;58.26;102075.84;5010444;28;45487;-66
2022/09/21 01:41:40;;;;;;;;;7.00;7.00;;;;;14.56;57.96;102083.19;5018120;28;45270;-65
2022/09/21 01:44:11;;;;;;;;;7.67;7.33;;;;;14.49;58.69;102087.41;5018645;28;45198;-65
2022/09/21 01:46:37;;;;;;;;;8.67;6.67;;;;;14.26;58.34;102049.28;5033496;28;49116;-72
2022/09/21 01:49:15;;;;;;;;;5.33;5.00;;;;;14.48;58.71;102084.88;5018334;28;45206;-65
2022/09/21 01:51:47;;;;;;;;;14.33;14.00;;;;;14.44;58.54;102083.44;5018428;28;45255;-65
2022/09/21 01:54:20;;;;;;;;;7.00;7.00;;;;;14.37;58.54;102068.88;5011360;28;45567;-65
2022/09/21 01:57:01;;;;;;;;;7.67;7.67;;;;;14.24;58.82;102048.59;5018164;28;46512;-65
2022/09/21 01:59:41;;;;;;;;;4.67;4.67;;;;;14.28;59.30;102070.53;5013586;28;45506;-65
2022/09/21 02:02:17;;;;;;;;;6.00;6.00;;;;;14.27;59.35;102075.06;5018222;28;45400;-64
2022/09/21 02:04:42;;;;;;;;;11.00;10.33;;;;;14.25;59.55;102074.34;5018703;28;45222;-65
2022/09/21 02:07:08;;;;;;;;;8.67;8.67;;;;;14.17;59.14;102047.41;5017653;28;46222;-64
2022/09/21 02:09:36;;;;;;;;;9.33;7.33;;;;;14.17;59.42;102050.09;5017720;28;45840;-64
2022/09/21 02:12:03;;;;;;;;;6.67;6.67;;;;;13.87;59.41;101999.31;5018262;28;45603;-66
2022/09/21 02:14:32;;;;;;;;;8.33;8.33;;;;;14.27;59.53;102074.22;5018150;28;45555;-65
2022/09/21 02:17:01;;;;;;;;;9.33;8.33;;;;;14.30;59.49;102077.44;5017621;28;45765;-65
2022/09/21 02:19:56;;;;;;;;;10.33;10.33;;;;;14.19;59.31;102053.47;5017601;28;45495;-66
2022/09/21 02:22:43;;;;;;;;;6.00;6.00;;;;;14.41;59.08;102083.66;5018137;28;45344;-66
2022/09/21 02:25:14;;;;;;;;;11.33;9.33;;;;;14.42;58.95;102082.72;5018129;28;45546;-65
2022/09/21 02:27:54;;;;;;;;;8.33;8.33;;;;;14.43;58.92;102076.38;5017679;28;45748;-65
2022/09/21 02:30:22;;;;;;;;;7.33;7.33;;;;;13.79;59.66;101980.41;5017343;28;45496;-65
2022/09/21 02:33:18;;;;;;;;;12.33;7.33;;;;;14.39;59.46;102077.59;5017644;28;45242;-64
2022/09/21 02:35:53;;;;;;;;;11.67;11.67;;;;;14.29;59.09;102061.53;5010658;28;45416;-65
2022/09/21 02:38:30;;;;;;;;;9.00;7.67;;;;;14.26;59.44;102057.31;5015433;28;49185;-66
2022/09/21 02:41:13;;;;;;;;;9.67;9.67;;;;;14.18;59.52;102053.59;5017435;28;45191;-65
2022/09/21 02:43:41;;;;;;;;;9.33;8.00;;;;;14.29;59.83;102074.91;5026082;28;45257;-65
2022/09/21 02:46:33;;;;;;;;;6.33;6.33;;;;;14.26;59.54;102073.38;5017658;28;45769;-65
2022/09/21 02:49:06;;;;;;;;;8.33;8.33;;;;;14.29;59.20;102069.56;5017323;28;47966;-64
2022/09/21 02:51:38;;;;;;;;;9.33;7.33;;;;;14.25;59.90;102069.00;5017264;28;45418;-64
2022/09/21 02:54:07;;;;;;;;;7.00;7.00;;;;;14.09;60.27;102041.91;5017467;28;45491;-65
2022/09/21 02:56:33;;;;;;;;;8.00;5.67;;;;;14.18;59.93;102057.13;5017241;28;45653;-64
2022/09/21 02:59:03;;;;;;;;;10.00;7.00;;;;;14.17;60.32;102059.94;5017205;28;45750;-64
2022/09/21 03:01:30;;;;;;;;;9.33;7.33;;;;;14.16;60.57;102064.44;5032251;28;45478;-66
2022/09/21 03:03:56;;;;;;;;;9.33;9.33;;;;;13.90;60.66;102039.16;5017407;28;45300;-64
2022/09/21 03:06:21;;;;;;;;;7.00;7.00;;;;;13.99;61.05;102052.53;5017242;28;45344;-65
2022/09/21 03:08:47;;;;;;;;;9.00;8.00;;;;;14.00;60.74;102048.03;5017477;28;46281;-64
2022/09/21 03:11:17;;;;;;;;;8.00;6.67;;;;;13.58;60.55;101983.13;5017358;28;45421;-66
2022/09/21 03:13:43;;;;;;;;;9.00;8.33;;;;;13.44;61.08;101959.47;5016935;28;45385;-66
2022/09/21 03:16:09;;;;;;;;;10.00;9.00;;;;;13.88;61.28;102038.44;5017621;28;45246;-65
2022/09/21 03:18:34;;;;;;;;;8.67;6.67;;;;;14.02;60.86;102051.47;5017189;28;45511;-67
2022/09/21 03:21:01;;;;;;;;;7.00;7.00;;;;;14.08;60.70;102060.75;5016778;28;45320;-65
2022/09/21 03:23:26;;;;;;;;;7.67;7.67;;;;;14.00;61.21;102061.41;5017068;28;45360;-65
2022/09/21 03:25:53;;;;;;;;;9.00;9.00;;;;;14.02;60.85;102061.31;5017273;28;45322;-65
2022/09/21 03:28:19;;;;;;;;;7.33;7.00;;;;;13.94;61.66;102059.28;5016754;28;45803;-64
2022/09/21 03:30:44;;;;;;;;;7.33;7.33;;;;;13.65;61.37;102011.88;5016340;28;45249;-66
2022/09/21 03:33:11;;;;;;;;;4.33;4.00;;;;;13.81;61.02;102037.25;5017065;28;45243;-66
2022/09/21 03:35:37;;;;;;;;;9.67;7.00;;;;;14.01;60.80;102071.13;5016905;28;45281;-65
2022/09/21 03:38:02;;;;;;;;;7.00;7.00;;;;;14.02;60.75;102072.00;5016554;28;46293;-65
2022/09/21 03:40:28;;;;;;;;;8.67;8.00;;;;;13.94;61.00;102061.97;5015255;28;45421;-65
2022/09/21 03:42:54;;;;;;;;;10.00;8.00;;;;;13.88;61.34;102051.81;5016473;28;45467;-65
2022/09/21 03:45:26;;;;;;;;;8.67;8.67;;;;;13.79;61.71;102055.25;5016841;28;45286;-65
2022/09/21 03:47:56;;;;;;;;;10.33;9.33;;;;;13.73;61.90;102048.63;5012793;28;46450;-65
2022/09/21 03:50:23;;;;;;;;;15.00;13.33;;;;;13.75;62.13;102072.56;5011534;28;45340;-65
2022/09/21 03:52:48;;;;;;;;;16.33;14.00;;;;;13.69;61.64;102064.09;5016059;28;45447;-65
2022/09/21 03:55:13;;;;;;;;;13.00;12.33;;;;;13.65;61.45;102053.81;5015817;28;57051;-65
2022/09/21 03:57:39;;;;;;;;;12.67;11.00;;;;;13.73;61.76;102055.81;5016325;28;46445;-65
2022/09/21 04:00:08;;;;;;;;;16.33;16.33;;;;;13.76;61.84;102066.22;5016497;28;45372;-64
2022/09/21 04:02:39;;;;;;;;;18.33;17.67;;;;;13.74;62.23;102074.38;5015203;28;45471;-65
2022/09/21 04:05:05;;;;;;;;;19.33;19.33;;;;;13.71;61.99;102063.97;5008937;28;45487;-65
2022/09/21 04:07:34;;;;;;;;;26.33;24.00;;;;;13.49;62.26;102038.22;5015622;28;47485;-64
2022/09/21 04:10:04;;;;;;;;;45.00;36.00;;;;;13.57;61.94;102046.41;5015854;28;45303;-64
2022/09/21 04:12:31;;;;;;;;;45.33;38.00;;;;;13.59;62.61;102065.84;5016105;28;45486;-65
2022/09/21 04:14:56;;;;;;;;;43.33;32.33;;;;;13.47;62.57;102056.22;5008240;28;45224;-64
2022/09/21 04:17:21;;;;;;;;;35.33;30.00;;;;;13.55;62.47;102069.75;5015949;28;46173;-65
2022/09/21 04:19:47;;;;;;;;;29.00;21.33;;;;;13.54;62.78;102067.22;5014356;28;45286;-66
2022/09/21 04:22:13;;;;;;;;;27.67;25.00;;;;;13.53;62.57;102060.19;5016115;28;45369;-65
2022/09/21 04:24:39;;;;;;;;;30.33;27.00;;;;;13.36;62.99;102037.56;5016327;28;45552;-65
2022/09/21 04:27:06;;;;;;;;;23.33;21.33;;;;;13.46;63.17;102049.19;5015541;28;45907;-65
2022/09/21 04:29:31;;;;;;;;;20.00;19.67;;;;;13.42;63.56;102057.59;5015121;28;45387;-65
2022/09/21 04:31:57;;;;;;;;;16.00;16.00;;;;;13.22;62.67;102027.25;5015691;28;45403;-65
2022/09/21 04:34:22;;;;;;;;;19.67;19.33;;;;;13.42;62.84;102047.75;5016173;28;45384;-64
2022/09/21 04:36:47;;;;;;;;;24.67;21.67;;;;;13.38;63.09;102052.50;5015039;28;58507;-65
2022/09/21 04:39:12;;;;;;;;;27.67;23.67;;;;;13.41;63.28;102064.72;5015974;28;45358;-65
2022/09/21 04:41:38;;;;;;;;;18.67;18.00;;;;;13.37;63.41;102060.63;5015852;28;45431;-64
2022/09/21 04:44:03;;;;;;;;;23.67;21.33;;;;;13.26;63.64;102052.69;5031160;28;45230;-65
2022/09/21 04:46:29;;;;;;;;;20.00;15.67;;;;;13.33;63.81;102069.88;5015190;28;45461;-64
2022/09/21 04:48:54;;;;;;;;;22.33;19.00;;;;;13.30;63.44;102064.81;5013732;28;45766;-66
2022/09/21 04:51:20;;;;;;;;;18.33;17.00;;;;;13.34;63.17;102066.25;5014370;28;45241;-65
2022/09/21 04:53:45;;;;;;;;;18.67;17.00;;;;;12.94;63.29;102005.47;5014496;28;45545;-66
2022/09/21 04:56:13;;;;;;;;;13.33;13.33;;;;;13.34;63.17;102076.94;5013545;28;49054;-65
2022/09/21 04:58:39;;;;;;;;;15.00;15.00;;;;;13.20;63.25;102042.50;5016158;28;46548;-66
2022/09/21 05:01:06;;;;;;;;;10.67;10.00;;;;;13.24;62.93;102050.16;5019023;28;45445;-65
2022/09/21 05:03:32;;;;;;;;;11.67;10.67;;;;;13.32;62.98;102073.53;5019077;28;45541;-66
2022/09/21 05:05:58;;;;;;;;;11.33;11.33;;;;;13.26;63.02;102074.06;5018850;28;46244;-65
2022/09/21 05:11:12;;;;;;;;;10.67;10.00;;;;;12.57;63.21;101959.66;5018680;28;45591;-65
2022/09/21 05:13:39;;;;;;;;;10.67;9.67;;;;;13.22;63.20;102070.81;5019183;28;45502;-66
2022/09/21 05:16:05;;;;;;;;;12.67;11.00;;;;;13.10;63.50;102053.94;5018248;28;46443;-65
2022/09/21 05:18:30;;;;;;;;;11.67;11.33;;;;;13.09;63.54;102051.41;5018252;28;45766;-65
2022/09/21 05:20:58;;;;;;;;;14.33;14.00;;;;;13.27;63.29;102070.41;5011146;28;45282;-67
2022/09/21 05:23:24;;;;;;;;;12.00;11.00;;;;;13.19;63.24;102060.34;5018926;28;45590;-67
2022/09/21 05:25:50;;;;;;;;;15.67;12.67;;;;;13.14;63.87;102046.53;5010797;28;46435;-67
2022/09/21 05:28:17;;;;;;;;;10.00;10.00;;;;;13.25;63.44;102075.03;5032325;28;45654;-66
2022/09/21 05:30:53;;;;;;;;;10.67;9.00;;;;;13.25;63.58;102069.72;5023529;28;45503;-66
2022/09/21 05:33:20;;;;;;;;;11.33;11.33;;;;;13.20;63.94;102075.41;5019319;28;45511;-66
2022/09/21 05:36:09;;;;;;;;;12.00;12.00;;;;;13.24;64.06;102078.69;5018090;28;45552;-66
2022/09/21 05:38:35;;;;;;;;;14.67;12.00;;;;;13.18;63.80;102071.16;5011275;28;45353;-66
2022/09/21 05:41:01;;;;;;;;;14.00;11.67;;;;;12.95;63.69;102041.88;5018385;28;45515;-69
2022/09/21 05:43:26;;;;;;;;;10.67;10.67;;;;;13.05;64.05;102061.50;5009934;28;45416;-67
2022/09/21 05:46:01;;;;;;;;;10.33;10.33;;;;;13.04;64.76;102081.16;5017750;28;46410;-68
2022/09/21 05:48:35;;;;;;;;;16.00;13.33;;;;;13.02;64.57;102076.94;5009803;28;45560;-66
2022/09/21 05:51:25;;;;;;;;;9.00;9.00;;;;;13.07;64.43;102072.91;5016296;28;45376;-67
2022/09/21 05:54:07;;;;;;;;;15.33;14.67;;;;;13.14;64.04;102081.25;5012817;28;45242;-66
2022/09/21 05:56:44;;;;;;;;;11.00;11.00;;;;;13.13;63.92;102073.34;5017761;28;46549;-67
2022/09/21 05:59:39;;;;;;;;;14.00;12.67;;;;;13.13;63.75;102074.19;5020948;28;45451;-68
2022/09/21 06:02:13;;;;;;;;;12.67;11.33;;;;;13.10;63.79;102069.97;5025073;28;45449;-68
2022/09/21 06:04:38;;;;;;;;;15.67;11.33;;;;;13.02;64.37;102047.56;5018675;28;45294;-68
2022/09/21 06:07:04;;;;;;;;;12.00;11.00;;;;;13.12;63.93;102071.66;5001245;28;46520;-72
2022/09/21 06:09:29;;;;;;;;;11.33;11.00;;;;;13.14;64.08;102075.06;5022529;28;45305;-68
2022/09/21 06:11:55;;;;;;;;;13.00;13.00;;;;;13.08;64.68;102071.94;5012073;28;45444;-67
2022/09/21 06:14:24;;;;;;;;;13.67;13.00;;;;;13.05;64.40;102077.53;5014828;28;45458;-65
2022/09/21 06:16:50;;;;;;;;;13.67;12.33;;;;;12.68;64.44;102012.16;5011572;28;45793;-67
2022/09/21 06:19:15;;;;;;;;;18.67;16.00;;;;;13.00;64.73;102062.84;5012942;28;45475;-68
2022/09/21 06:21:41;;;;;;;;;16.33;14.67;;;;;13.10;64.60;102059.28;5017046;28;45155;-67
2022/09/21 06:24:07;;;;;;;;;15.00;15.00;;;;;13.17;63.86;102072.97;5018134;28;45332;-66
2022/09/21 06:26:33;;;;;;;;;17.67;14.00;;;;;13.16;64.06;102081.09;5016972;28;45603;-66
2022/09/21 06:28:59;;;;;;;;;18.33;16.33;;;;;13.11;64.05;102060.13;5017945;28;45518;-67
2022/09/21 06:31:25;;;;;;;;;17.33;17.33;;;;;13.17;64.47;102075.63;5015467;28;45527;-67
2022/09/21 06:33:51;;;;;;;;;19.00;16.67;;;;;13.26;64.21;102071.41;5018030;28;45443;-68
2022/09/21 06:36:16;;;;;;;;;20.67;16.67;;;;;13.33;63.99;102081.44;5016729;28;45407;-67
2022/09/21 06:38:42;;;;;;;;;26.33;18.67;;;;;12.82;63.44;101979.84;5032777;28;45799;-67
2022/09/21 06:41:07;;;;;;;;;23.67;18.67;;;;;13.49;63.51;102090.81;5016043;28;45383;-66
2022/09/21 06:43:32;;;;;;;;;20.67;17.33;;;;;13.54;63.29;102089.44;5018807;28;45509;-67
2022/09/21 06:46:00;;;;;;;;;22.33;19.33;;;;;13.58;63.13;102085.53;5015579;28;47210;-67
2022/09/21 06:48:27;;;;;;;;;21.33;21.33;;;;;13.64;62.57;102082.34;5016053;28;45488;-66
2022/09/21 06:50:59;;;;;;;;;19.67;18.00;;;;;13.14;62.92;101990.44;5016651;28;45534;-68
2022/09/21 06:53:26;;;;;;;;;20.33;16.00;;;;;13.78;62.59;102080.31;5016520;28;45487;-67
2022/09/21 06:55:51;;;;;;;;;16.67;15.00;;;;;13.92;62.37;102090.66;5024569;28;47581;-67
2022/09/21 06:58:18;;;;;;;;;20.33;18.67;;;;;14.51;61.20;102082.75;5012858;28;45495;-67
2022/09/21 07:00:43;;;;;;;;;20.67;18.00;;;;;15.34;58.57;102073.38;5016585;28;45408;-68
2022/09/21 07:03:12;;;;;;;;;23.67;22.33;;;;;16.30;56.13;102083.00;5016699;28;45439;-67
2022/09/21 07:05:38;;;;;;;;;20.67;17.33;;;;;17.08;53.57;102071.81;5016529;28;46664;-69
2022/09/21 07:08:03;;;;;;;;;20.67;16.67;;;;;17.83;51.52;102067.69;5016642;28;45578;-66
2022/09/21 07:10:29;;;;;;;;;17.00;16.00;;;;;18.16;49.24;101999.56;5016821;28;45590;-77
2022/09/21 07:12:54;;;;;;;;;16.00;14.33;;;;;19.23;47.24;102074.22;5006584;28;45573;-67
2022/09/21 07:15:20;;;;;;;;;13.67;13.67;;;;;19.79;46.42;102071.63;5016314;28;45606;-66
2022/09/21 07:17:45;;;;;;;;;14.33;13.33;;;;;20.17;44.60;102064.59;5016333;28;45574;-68
2022/09/21 07:20:11;;;;;;;;;20.33;17.67;;;;;20.51;43.96;102075.97;5010905;28;45562;-67
2022/09/21 07:22:36;;;;;;;;;15.33;14.33;;;;;21.22;42.27;102060.44;5016312;28;45331;-68
2022/09/21 07:25:04;;;;;;;;;15.33;13.67;;;;;21.33;40.93;102049.22;5015974;28;47460;-67
2022/09/21 07:27:31;;;;;;;;;19.33;15.00;;;;;21.44;40.69;102062.31;5013171;28;45515;-68
2022/09/21 07:29:57;;;;;;;;;13.33;11.67;;;;;21.69;41.39;102065.63;5014308;28;45555;-68
2022/09/21 07:32:22;;;;;;;;;15.00;13.67;;;;;22.23;39.62;102059.13;5016406;28;45370;-66
2022/09/21 07:34:47;;;;;;;;;16.67;14.67;;;;;22.50;39.42;102028.59;5015083;28;47801;-67
2022/09/21 07:37:13;;;;;;;;;24.00;15.33;;;;;23.22;37.98;102052.91;5016663;28;45536;-66
2022/09/21 07:39:39;;;;;;;;;15.67;12.33;;;;;23.51;36.32;102061.91;5015115;28;45557;-69
2022/09/21 07:42:05;;;;;;;;;12.33;11.00;;;;;23.32;36.23;102015.44;5008384;28;45465;-68
2022/09/21 07:44:31;;;;;;;;;15.00;15.00;;;;;23.95;35.79;102065.16;5016604;28;46659;-67
2022/09/21 07:46:57;;;;;;;;;13.00;12.67;;;;;24.44;35.29;102030.72;5015976;28;45388;-68
2022/09/21 07:49:22;;;;;;;;;19.67;17.33;;;;;24.94;33.49;102053.84;5016720;28;45303;-69
2022/09/21 07:51:48;;;;;;;;;18.00;15.00;;;;;24.43;33.90;102059.81;5016643;28;46150;-68
2022/09/21 07:54:14;;;;;;;;;15.00;15.00;;;;;24.63;34.39;102039.97;5015795;28;46650;-66
2022/09/21 07:56:41;;;;;;;;;14.33;13.67;;;;;25.26;32.63;102043.22;5016239;28;45545;-66
2022/09/21 07:59:06;;;;;;;;;16.67;15.67;;;;;25.54;32.19;102045.72;5016597;28;45511;-68
2022/09/21 08:01:34;;;;;;;;;17.00;15.33;;;;;25.81;32.58;102043.81;5016701;28;45348;-67
2022/09/21 08:03:59;;;;;;;;;17.33;15.33;;;;;25.59;31.15;101965.03;5016504;28;46839;-68
2022/09/21 08:06:27;;;;;;;;;15.67;15.67;;;;;26.44;31.59;102044.88;5014672;28;45338;-67
2022/09/21 08:08:52;;;;;;;;;20.67;17.67;;;;;26.45;30.20;102010.25;5007783;28;46697;-74
2022/09/21 08:11:21;;;;;;;;;18.00;16.00;;;;;26.50;30.59;102032.25;5015731;28;51228;-68
2022/09/21 08:13:47;;;;;;;;;14.33;13.67;;;;;26.40;30.57;102048.22;5016647;28;45822;-69
2022/09/21 08:16:13;;;;;;;;;14.67;14.33;;;;;26.51;30.43;102050.28;5014606;28;45465;-70
2022/09/21 08:18:49;;;;;;;;;12.67;11.67;;;;;26.41;30.01;102049.91;5016045;28;45268;-69
2022/09/21 08:21:14;;;;;;;;;14.00;13.00;;;;;26.57;30.34;102042.06;5014934;28;45594;-67
2022/09/21 08:23:41;;;;;;;;;13.67;13.67;;;;;26.76;29.81;102051.19;5015486;28;46543;-68
2022/09/21 08:26:08;;;;;;;;;15.33;14.00;;;;;26.39;30.04;102050.13;5015215;28;45703;-77
2022/09/21 08:28:35;;;;;;;;;10.33;10.33;;;;;25.84;30.59;102048.84;5015053;28;45484;-68
2022/09/21 08:31:01;;;;;;;;;17.00;13.67;;;;;25.78;31.30;102040.47;5015977;28;45618;-68
2022/09/21 08:33:27;;;;;;;;;13.67;13.67;;;;;25.86;30.85;102055.75;5016827;28;46312;-68
2022/09/21 08:35:54;;;;;;;;;14.33;12.00;;;;;25.70;30.95;102054.31;5017551;28;45415;-67
2022/09/21 08:38:19;;;;;;;;;14.67;14.67;;;;;25.74;30.46;102050.13;5019252;28;45424;-69
2022/09/21 08:40:45;;;;;;;;;14.33;13.00;;;;;25.75;30.25;102051.78;5014694;28;45574;-68
2022/09/21 08:43:15;;;;;;;;;10.00;10.00;;;;;25.86;30.98;102030.41;5014254;28;46656;-66
2022/09/21 08:45:43;;;;;;;;;9.67;8.67;;;;;25.72;30.49;102041.31;5019307;28;45297;-68
2022/09/21 08:48:22;;;;;;;;;12.67;11.33;;;;;25.56;30.52;102044.44;5019067;28;45457;-67
2022/09/21 08:50:54;;;;;;;;;12.00;11.00;;;;;25.51;30.13;102049.69;5019189;28;45433;-67
2022/09/21 08:53:32;;;;;;;;;12.33;12.00;;;;;25.18;31.46;102055.97;5017702;28;46554;-67
2022/09/21 08:55:58;;;;;;;;;14.67;12.33;;;;;24.84;32.32;102056.16;5017182;28;45395;-70
2022/09/21 08:58:26;;;;;;;;;11.00;11.00;;;;;25.15;31.24;102034.63;5019099;28;45515;-69
2022/09/21 09:01:33;;;;;;;;;10.33;9.33;;;;;25.56;30.70;102054.50;5014695;28;45547;-73
2022/09/21 09:04:25;;;;;;;;;11.33;8.67;;;;;25.84;30.46;102048.84;5007552;28;46769;-68
2022/09/21 09:07:27;;;;;;;;;16.67;13.33;;;;;25.98;30.21;102048.56;5018710;28;45387;-69
2022/09/21 09:10:11;;;;;;;;;13.67;10.00;;;;;25.82;30.10;102057.22;4964714;28;45506;-68
2022/09/21 09:12:43;;;;;;;;;16.67;12.33;;;;;25.96;29.93;102042.50;5028814;28;45277;-69
2022/09/21 09:15:28;;;;;;;;;14.00;12.00;;;;;26.20;29.26;102053.75;5018142;28;46054;-69
2022/09/21 09:18:13;;;;;;;;;11.00;11.00;;;;;26.74;28.51;102056.03;5018604;28;45311;-67
2022/09/21 09:20:39;;;;;;;;;9.00;8.33;;;;;27.45;28.18;102047.53;5012658;28;45463;-66
2022/09/21 09:23:23;;;;;;;;;13.67;11.67;;;;;28.53;26.46;102052.44;5019013;28;45588;-69
2022/09/21 09:25:52;;;;;;;;;10.67;8.67;;;;;29.55;25.29;102053.16;5033997;28;48776;-68
2022/09/21 09:28:26;;;;;;;;;8.00;8.00;;;;;30.41;23.64;102042.41;5032917;28;45511;-67
2022/09/21 09:31:23;;;;;;;;;9.00;9.00;;;;;30.75;23.28;102046.09;5018812;28;45629;-68
2022/09/21 09:33:58;;;;;;;;;8.00;7.00;;;;;30.06;23.29;102037.88;5011950;28;45332;-68
2022/09/21 09:36:31;;;;;;;;;10.67;8.67;;;;;30.72;22.99;102043.84;5016992;28;46772;-69
2022/09/21 09:39:01;;;;;;;;;6.33;6.33;;;;;31.10;22.50;102038.47;5018127;28;45260;-68
2022/09/21 09:41:30;;;;;;;;;9.33;8.67;;;;;31.98;21.78;102039.53;5016471;28;45514;-68
2022/09/21 09:44:16;;;;;;;;;14.33;11.67;;;;;32.53;21.00;102037.72;5018644;28;45369;-67
2022/09/21 09:47:19;;;;;;;;;8.00;7.67;;;;;32.08;21.22;102044.34;5017788;28;45423;-68
2022/09/21 09:50:05;;;;;;;;;10.67;10.00;;;;;30.42;23.18;102038.56;5017615;28;45244;-70
2022/09/21 09:52:32;;;;;;;;;8.00;8.00;;;;;29.41;24.33;102029.78;5018174;28;45285;-68
2022/09/21 09:54:59;;;;;;;;;7.67;7.00;;;;;29.04;24.79;102029.19;5010084;28;45427;-68
2022/09/21 09:57:32;;;;;;;;;36.67;28.67;;;;;28.88;25.02;102047.13;5017147;28;46784;-67
2022/09/21 10:00:03;;;;;;;;;12.67;10.33;;;;;28.29;25.59;102050.66;5017748;28;45349;-69
2022/09/21 10:02:28;;;;;;;;;11.67;9.67;;;;;27.24;26.98;101979.69;5018226;28;45532;-69
2022/09/21 10:05:04;;;;;;;;;12.00;9.00;;;;;26.92;27.38;102042.47;5017953;28;45453;-68
2022/09/21 10:07:47;;;;;;;;;11.00;11.00;;;;;26.02;28.93;102041.63;5017602;28;45812;-68
2022/09/21 10:10:32;;;;;;;;;12.33;11.67;;;;;24.84;30.18;102037.94;5009777;28;45366;-68
2022/09/21 10:13:21;;;;;;;;;11.00;10.00;;;;;23.94;32.15;102049.91;5018173;28;45417;-70
2022/09/21 10:16:12;;;;;;;;;7.00;7.00;;;;;23.53;32.56;102035.41;5018035;28;45462;-69
2022/09/21 10:18:48;;;;;;;;;8.00;7.67;;;;;22.92;34.01;102035.13;5008482;28;46965;-72
2022/09/21 10:21:40;;;;;;;;;13.67;12.00;;;;;22.45;34.63;102028.34;5016388;28;45407;-67
2022/09/21 10:24:23;;;;;;;;;7.33;6.33;;;;;21.89;35.51;102032.59;5010398;28;45576;-68
2022/09/21 10:26:55;;;;;;;;;6.67;6.00;;;;;21.78;35.81;102036.59;5016011;28;45432;-69
2022/09/21 10:29:24;;;;;;;;;7.00;6.67;;;;;21.65;36.08;102025.59;5017557;28;46846;-68
2022/09/21 10:31:55;;;;;;;;;11.67;11.67;;;;;21.55;36.79;102025.84;5016430;28;45364;-70
2022/09/21 10:34:22;;;;;;;;;8.00;8.00;;;;;20.64;36.93;101943.84;5015310;28;45735;-71
2022/09/21 10:36:55;;;;;;;;;7.33;7.33;;;;;20.96;37.57;102031.91;5018349;28;45310;-70
2022/09/21 10:39:22;;;;;;;;;7.67;7.67;;;;;19.34;38.08;101812.28;5017533;28;46502;-70
2022/09/21 10:41:51;;;;;;;;;7.67;6.67;;;;;20.43;38.70;102021.16;5015974;28;46466;-71
2022/09/21 10:44:24;;;;;;;;;12.00;10.67;;;;;20.10;38.45;101983.47;5016612;28;45445;-72
2022/09/21 10:46:50;;;;;;;;;7.33;5.00;;;;;20.30;38.87;102030.63;5010092;28;45350;-69
2022/09/21 10:49:23;;;;;;;;;9.33;7.00;;;;;19.84;39.04;102001.81;5017470;28;46404;-71
2022/09/21 10:51:53;;;;;;;;;5.67;5.00;;;;;19.90;39.10;102028.09;5015648;28;45590;-69
2022/09/21 10:54:29;;;;;;;;;7.00;6.00;;;;;19.78;38.94;102024.09;5013735;28;45498;-70
2022/09/21 10:57:09;;;;;;;;;6.67;5.67;;;;;19.30;39.13;101944.94;5012510;28;45227;-70
2022/09/21 10:59:36;;;;;;;;;9.00;5.00;;;;;19.49;39.26;101992.28;5015323;28;47671;-70
2022/09/21 11:02:22;;;;;;;;;9.33;8.67;;;;;19.69;39.02;102023.28;5016387;28;45845;-70
2022/09/21 11:04:54;;;;;;;;;6.00;5.00;;;;;19.73;39.42;102011.94;5015579;28;45279;-71
2022/09/21 11:07:27;;;;;;;;;12.00;12.00;;;;;19.78;39.23;102008.72;5013095;28;45376;-70
2022/09/21 11:10:06;;;;;;;;;6.00;6.00;;;;;19.62;38.98;101993.47;5013246;28;46558;-73
2022/09/21 11:12:48;;;;;;;;;22.67;17.00;;;;;19.61;39.04;102005.22;5009348;28;45543;-73
2022/09/21 11:15:17;;;;;;;;;7.00;6.00;;;;;19.80;38.52;102005.84;5009439;28;46165;-73
2022/09/21 11:17:54;;;;;;;;;5.00;4.00;;;;;19.75;38.25;102004.53;5012593;28;45516;-69
2022/09/21 11:20:35;;;;;;;;;5.33;5.00;;;;;19.53;38.22;102007.94;5012357;28;46085;-67
2022/09/21 11:23:17;;;;;;;;;8.00;8.00;;;;;19.55;38.32;102016.72;5030255;28;45426;-70
2022/09/21 11:26:00;;;;;;;;;6.67;6.00;;;;;19.38;39.08;102007.78;5013782;28;45463;-67
2022/09/21 11:28:37;;;;;;;;;3.00;3.00;;;;;19.21;39.68;102008.81;5016802;28;45354;-69
2022/09/21 11:31:21;;;;;;;;;5.00;4.33;;;;;19.30;39.13;102004.25;5017384;28;47507;-70
2022/09/21 11:34:02;;;;;;;;;6.00;4.00;;;;;19.42;39.11;101998.34;5021532;28;45241;-68
2022/09/21 11:36:35;;;;;;;;;4.00;4.00;;;;;19.52;38.68;101998.16;5017358;28;45385;-67